SWA6132 KOMA-KSTL
Flight info
| Callsign | SWA6132 |
|---|---|
| Flight time | 0h 56m |
| Altitude | 35000 |
| Route | LMN IRK LORLE3 |
| Aircraft | B737/M-SDE2E3GIJ4RWZ/LB1D1 |
Departure
| Time | 2026-05-06 11:35 |
|---|---|
| Airport | Eppley Airfield (KOMA) |
Arrival
| Time | 2026-05-06 12:31 |
|---|---|
| Airport | St. Louis Lambert International Airport (KSTL) |
| Time | Latitude | Longitude | Altitude | Speed | Heading |
|---|---|---|---|---|---|
| 2026-05-06 11:24 | 41.30178 | -95.89816 | 988 ft | 0 kts | 210° |
| 2026-05-06 11:30 | 41.30177 | -95.89817 | 988 ft | 0 kts | 210° |
| 2026-05-06 11:30 | 41.30188 | -95.89809 | 990 ft | 2 kts | 210° |
| 2026-05-06 11:30 | 41.30201 | -95.89799 | 988 ft | 0 kts | 210° |
| 2026-05-06 11:31 | 41.30196 | -95.89800 | 989 ft | 5 kts | 193° |
| 2026-05-06 11:31 | 41.30186 | -95.89786 | 990 ft | 4 kts | 106° |
| 2026-05-06 11:31 | 41.30174 | -95.89742 | 990 ft | 5 kts | 117° |
| 2026-05-06 11:31 | 41.30142 | -95.89705 | 991 ft | 8 kts | 151° |
| 2026-05-06 11:32 | 41.30073 | -95.89683 | 985 ft | 14 kts | 173° |
| 2026-05-06 11:32 | 41.29942 | -95.89672 | 988 ft | 23 kts | 179° |
| 2026-05-06 11:32 | 41.29774 | -95.89673 | 987 ft | 24 kts | 181° |
| 2026-05-06 11:32 | 41.29614 | -95.89678 | 990 ft | 22 kts | 175° |
| 2026-05-06 11:33 | 41.29478 | -95.89603 | 993 ft | 21 kts | 171° |
| 2026-05-06 11:33 | 41.29333 | -95.89603 | 989 ft | 21 kts | 181° |
| 2026-05-06 11:33 | 41.29201 | -95.89605 | 989 ft | 17 kts | 180° |
| 2026-05-06 11:33 | 41.29143 | -95.89604 | 989 ft | 7 kts | 167° |
| 2026-05-06 11:34 | 41.29117 | -95.89560 | 988 ft | 0 kts | 102° |
| 2026-05-06 11:34 | 41.29124 | -95.89504 | 989 ft | 14 kts | 60° |
| 2026-05-06 11:34 | 41.29208 | -95.89465 | 989 ft | 12 kts | 1° |
| 2026-05-06 11:34 | 41.29499 | -95.89462 | 990 ft | 90 kts | 360° |
| 2026-05-06 11:35 | 41.30439 | -95.89463 | 1001 ft | 176 kts | 360° |
| 2026-05-06 11:35 | 41.31861 | -95.89452 | 1502 ft | 225 kts | 1° |
| 2026-05-06 11:35 | 41.33517 | -95.89131 | 2075 ft | 250 kts | 15° |
| 2026-05-06 11:35 | 41.35034 | -95.88116 | 2462 ft | 247 kts | 39° |
| 2026-05-06 11:36 | 41.35973 | -95.86170 | 2745 ft | 257 kts | 75° |
| 2026-05-06 11:36 | 41.35845 | -95.83809 | 3067 ft | 259 kts | 106° |
| 2026-05-06 11:36 | 41.35078 | -95.81632 | 3700 ft | 266 kts | 122° |
| 2026-05-06 11:36 | 41.33840 | -95.79762 | 4347 ft | 272 kts | 139° |
| 2026-05-06 11:37 | 41.32338 | -95.78195 | 4982 ft | 276 kts | 142° |
| 2026-05-06 11:37 | 41.30848 | -95.76596 | 5582 ft | 281 kts | 140° |
| 2026-05-06 11:37 | 41.29357 | -95.74900 | 6149 ft | 283 kts | 137° |
| 2026-05-06 11:37 | 41.27942 | -95.73049 | 6645 ft | 286 kts | 132° |
| 2026-05-06 11:38 | 41.26617 | -95.71061 | 7093 ft | 290 kts | 129° |
| 2026-05-06 11:38 | 41.25358 | -95.68940 | 7546 ft | 293 kts | 126° |
| 2026-05-06 11:38 | 41.24168 | -95.66726 | 8083 ft | 297 kts | 123° |
| 2026-05-06 11:38 | 41.23021 | -95.64411 | 8659 ft | 302 kts | 121° |
| 2026-05-06 11:39 | 41.21910 | -95.62015 | 9190 ft | 308 kts | 120° |
| 2026-05-06 11:39 | 41.20823 | -95.59536 | 9602 ft | 311 kts | 119° |
| 2026-05-06 11:39 | 41.19782 | -95.57052 | 10100 ft | 313 kts | 118° |
| 2026-05-06 11:39 | 41.18721 | -95.54466 | 10577 ft | 326 kts | 117° |
| 2026-05-06 11:40 | 41.17644 | -95.51732 | 11018 ft | 341 kts | 117° |
| 2026-05-06 11:40 | 41.16540 | -95.48880 | 11482 ft | 353 kts | 117° |
| 2026-05-06 11:40 | 41.15405 | -95.45926 | 11938 ft | 365 kts | 117° |
| 2026-05-06 11:40 | 41.14243 | -95.42870 | 12368 ft | 376 kts | 117° |
| 2026-05-06 11:41 | 41.13073 | -95.39753 | 12808 ft | 379 kts | 117° |
| 2026-05-06 11:41 | 41.11893 | -95.36590 | 13253 ft | 384 kts | 117° |
| 2026-05-06 11:41 | 41.10713 | -95.33392 | 13699 ft | 387 kts | 117° |
| 2026-05-06 11:41 | 41.09537 | -95.30170 | 14115 ft | 391 kts | 117° |
| 2026-05-06 11:42 | 41.08369 | -95.26945 | 14524 ft | 394 kts | 117° |
| 2026-05-06 11:42 | 41.07188 | -95.23650 | 14959 ft | 398 kts | 117° |
| 2026-05-06 11:42 | 41.05990 | -95.20335 | 15380 ft | 400 kts | 117° |
| 2026-05-06 11:42 | 41.04771 | -95.17003 | 15820 ft | 403 kts | 117° |
| 2026-05-06 11:43 | 41.03554 | -95.13640 | 16226 ft | 407 kts | 118° |
| 2026-05-06 11:43 | 41.02306 | -95.10260 | 16644 ft | 409 kts | 118° |
| 2026-05-06 11:43 | 41.01046 | -95.06863 | 17063 ft | 413 kts | 118° |
| 2026-05-06 11:44 | 40.98528 | -94.99966 | 17862 ft | 418 kts | 119° |
| 2026-05-06 11:44 | 40.97239 | -94.96500 | 18273 ft | 421 kts | 120° |
| 2026-05-06 11:44 | 40.95942 | -94.93010 | 18628 ft | 423 kts | 120° |
| 2026-05-06 11:44 | 40.94672 | -94.89546 | 19001 ft | 425 kts | 120° |
| 2026-05-06 11:45 | 40.93348 | -94.85979 | 19397 ft | 428 kts | 121° |
| 2026-05-06 11:45 | 40.92051 | -94.82474 | 19776 ft | 430 kts | 121° |
| 2026-05-06 11:45 | 40.90728 | -94.78912 | 20149 ft | 433 kts | 121° |
| 2026-05-06 11:45 | 40.89391 | -94.75327 | 20516 ft | 435 kts | 121° |
| 2026-05-06 11:46 | 40.88051 | -94.71736 | 20885 ft | 437 kts | 122° |
| 2026-05-06 11:46 | 40.86691 | -94.68129 | 21258 ft | 439 kts | 122° |
| 2026-05-06 11:46 | 40.85337 | -94.64491 | 21643 ft | 442 kts | 122° |
| 2026-05-06 11:46 | 40.83960 | -94.60851 | 22016 ft | 443 kts | 126° |
| 2026-05-06 11:47 | 40.82106 | -94.57676 | 21939 ft | 430 kts | 148° |
| 2026-05-06 11:47 | 40.79654 | -94.55680 | 21572 ft | 401 kts | 170° |
| 2026-05-06 11:47 | 40.77003 | -94.55101 | 20955 ft | 377 kts | 192° |
| 2026-05-06 11:47 | 40.74549 | -94.55945 | 20199 ft | 359 kts | 215° |
| 2026-05-06 11:48 | 40.72658 | -94.57980 | 19503 ft | 347 kts | 233° |
| 2026-05-06 11:48 | 40.71148 | -94.60281 | 19701 ft | 323 kts | 233° |
| 2026-05-06 11:48 | 40.69711 | -94.62427 | 20110 ft | 307 kts | 233° |
| 2026-05-06 11:48 | 40.68285 | -94.64555 | 20551 ft | 314 kts | 233° |
| 2026-05-06 11:49 | 40.66805 | -94.66755 | 20862 ft | 328 kts | 232° |
| 2026-05-06 11:49 | 40.65252 | -94.69019 | 21143 ft | 338 kts | 232° |
| 2026-05-06 11:49 | 40.63646 | -94.71303 | 21413 ft | 338 kts | 231° |
| 2026-05-06 11:49 | 40.61985 | -94.73483 | 21622 ft | 343 kts | 222° |
| 2026-05-06 11:50 | 40.59795 | -94.74830 | 21530 ft | 364 kts | 199° |
| 2026-05-06 11:50 | 40.57350 | -94.75541 | 21614 ft | 352 kts | 210° |
| 2026-05-06 11:50 | 40.55365 | -94.77287 | 21729 ft | 339 kts | 228° |
| 2026-05-06 11:50 | 40.53738 | -94.79343 | 23242 ft | 303 kts | 228° |
| 2026-05-06 11:51 | 40.52359 | -94.80953 | 25984 ft | 221 kts | 227° |
| 2026-05-06 11:51 | 40.51380 | -94.81981 | 28500 ft | 169 kts | 229° |
| 2026-05-06 11:51 | 40.50742 | -94.82662 | 28320 ft | 190 kts | 229° |
| 2026-05-06 11:51 | 40.49681 | -94.83972 | 27865 ft | 219 kts | 233° |
| 2026-05-06 11:52 | 40.48688 | -94.85493 | 28155 ft | 219 kts | 238° |
| 2026-05-06 11:52 | 40.47854 | -94.87178 | 28556 ft | 222 kts | 238° |
| 2026-05-06 11:52 | 40.46699 | -94.88658 | 28707 ft | 246 kts | 221° |
| 2026-05-06 11:52 | 40.45101 | -94.89676 | 29058 ft | 264 kts | 211° |
| 2026-05-06 11:53 | 40.43291 | -94.90354 | 29511 ft | 277 kts | 203° |
| 2026-05-06 11:53 | 40.41279 | -94.90535 | 29804 ft | 304 kts | 191° |
| 2026-05-06 11:53 | 40.39110 | -94.90164 | 30159 ft | 323 kts | 182° |
| 2026-05-06 11:53 | 40.36878 | -94.89400 | 30503 ft | 338 kts | 177° |
| 2026-05-06 11:54 | 40.34620 | -94.88348 | 30825 ft | 351 kts | 174° |
| 2026-05-06 11:54 | 40.32334 | -94.87072 | 31138 ft | 363 kts | 171° |
| 2026-05-06 11:54 | 40.30056 | -94.85644 | 31433 ft | 373 kts | 169° |
| 2026-05-06 11:54 | 40.27719 | -94.84052 | 31738 ft | 382 kts | 168° |
| 2026-05-06 11:55 | 40.25370 | -94.82343 | 32030 ft | 391 kts | 167° |
| 2026-05-06 11:55 | 40.22971 | -94.80613 | 32173 ft | 388 kts | 175° |
| 2026-05-06 11:55 | 40.20446 | -94.79888 | 31967 ft | 360 kts | 197° |
| 2026-05-06 11:55 | 40.17878 | -94.79684 | 32075 ft | 392 kts | 182° |
| 2026-05-06 11:56 | 40.15189 | -94.78514 | 32366 ft | 415 kts | 175° |
| 2026-05-06 11:56 | 40.12502 | -94.77093 | 32745 ft | 418 kts | 175° |
| 2026-05-06 11:56 | 40.09795 | -94.75674 | 33011 ft | 421 kts | 175° |
| 2026-05-06 11:56 | 40.07052 | -94.74239 | 33098 ft | 430 kts | 175° |
| 2026-05-06 11:57 | 40.01391 | -94.71302 | 33087 ft | 449 kts | 175° |
| 2026-05-06 11:57 | 39.95484 | -94.68188 | 33099 ft | 466 kts | 174° |
| 2026-05-06 11:58 | 39.89391 | -94.65002 | 33100 ft | 475 kts | 174° |
| 2026-05-06 11:58 | 39.83264 | -94.61793 | 33099 ft | 473 kts | 174° |
| 2026-05-06 11:59 | 39.77167 | -94.58556 | 33108 ft | 474 kts | 174° |
| 2026-05-06 11:59 | 39.71096 | -94.55319 | 33121 ft | 475 kts | 174° |
| 2026-05-06 12:00 | 39.64980 | -94.52137 | 33109 ft | 472 kts | 175° |
| 2026-05-06 12:00 | 39.58856 | -94.48998 | 33101 ft | 472 kts | 175° |
| 2026-05-06 12:01 | 39.52952 | -94.45948 | 33083 ft | 473 kts | 175° |
| 2026-05-06 12:01 | 39.46834 | -94.42775 | 33086 ft | 474 kts | 175° |
| 2026-05-06 12:02 | 39.40782 | -94.39093 | 32920 ft | 513 kts | 158° |
| 2026-05-06 12:02 | 39.38199 | -94.35735 | 32668 ft | 554 kts | 139° |
| 2026-05-06 12:02 | 39.36109 | -94.31498 | 32749 ft | 558 kts | 132° |
| 2026-05-06 12:03 | 39.34170 | -94.27151 | 33083 ft | 556 kts | 132° |
| 2026-05-06 12:03 | 39.32234 | -94.22800 | 33087 ft | 563 kts | 132° |
| 2026-05-06 12:03 | 39.28280 | -94.13949 | 33083 ft | 571 kts | 132° |
| 2026-05-06 12:04 | 39.24302 | -94.05112 | 33087 ft | 566 kts | 133° |
| 2026-05-06 12:04 | 39.20305 | -93.96407 | 33087 ft | 567 kts | 133° |
| 2026-05-06 12:05 | 39.16281 | -93.87639 | 33089 ft | 567 kts | 133° |
| 2026-05-06 12:05 | 39.12266 | -93.78887 | 33090 ft | 568 kts | 133° |
| 2026-05-06 12:06 | 39.08251 | -93.70113 | 33092 ft | 568 kts | 133° |
| 2026-05-06 12:06 | 39.04229 | -93.61337 | 33093 ft | 568 kts | 133° |
| 2026-05-06 12:07 | 39.00244 | -93.52635 | 33093 ft | 569 kts | 132° |
| 2026-05-06 12:07 | 38.96235 | -93.43855 | 33095 ft | 569 kts | 132° |
| 2026-05-06 12:08 | 38.92193 | -93.35105 | 33095 ft | 568 kts | 133° |
| 2026-05-06 12:08 | 38.88095 | -93.26410 | 33090 ft | 568 kts | 133° |
| 2026-05-06 12:09 | 38.84012 | -93.17741 | 33081 ft | 568 kts | 133° |
| 2026-05-06 12:09 | 38.79952 | -93.09120 | 33082 ft | 569 kts | 133° |
| 2026-05-06 12:10 | 38.75860 | -93.00434 | 33073 ft | 568 kts | 133° |
| 2026-05-06 12:10 | 38.71776 | -92.91765 | 33074 ft | 569 kts | 133° |
| 2026-05-06 12:11 | 38.67626 | -92.83157 | 33067 ft | 568 kts | 134° |
| 2026-05-06 12:11 | 38.63769 | -92.74260 | 32960 ft | 588 kts | 119° |
| 2026-05-06 12:12 | 38.62842 | -92.69025 | 32413 ft | 614 kts | 99° |
| 2026-05-06 12:12 | 38.63037 | -92.63577 | 31916 ft | 613 kts | 79° |
| 2026-05-06 12:12 | 38.64332 | -92.58456 | 31478 ft | 599 kts | 62° |
| 2026-05-06 12:12 | 38.66059 | -92.53651 | 31145 ft | 592 kts | 65° |
| 2026-05-06 12:13 | 38.67352 | -92.48635 | 30775 ft | 594 kts | 76° |
| 2026-05-06 12:13 | 38.68083 | -92.43524 | 30399 ft | 590 kts | 84° |
| 2026-05-06 12:13 | 38.68453 | -92.38322 | 30007 ft | 583 kts | 89° |
| 2026-05-06 12:13 | 38.68632 | -92.33163 | 29555 ft | 577 kts | 91° |
| 2026-05-06 12:14 | 38.68735 | -92.28065 | 29105 ft | 570 kts | 91° |
| 2026-05-06 12:14 | 38.68799 | -92.23014 | 28643 ft | 564 kts | 92° |
| 2026-05-06 12:14 | 38.68844 | -92.18025 | 28204 ft | 558 kts | 92° |
| 2026-05-06 12:14 | 38.68892 | -92.13077 | 27755 ft | 552 kts | 92° |
| 2026-05-06 12:15 | 38.68944 | -92.08178 | 27312 ft | 546 kts | 92° |
| 2026-05-06 12:15 | 38.68996 | -92.03346 | 26871 ft | 540 kts | 92° |
| 2026-05-06 12:15 | 38.69050 | -91.98573 | 26443 ft | 534 kts | 92° |
| 2026-05-06 12:15 | 38.69081 | -91.93844 | 26017 ft | 528 kts | 93° |
| 2026-05-06 12:16 | 38.69093 | -91.89171 | 25594 ft | 522 kts | 93° |
| 2026-05-06 12:16 | 38.69107 | -91.84546 | 25183 ft | 517 kts | 93° |
| 2026-05-06 12:16 | 38.69125 | -91.79965 | 24764 ft | 512 kts | 93° |
| 2026-05-06 12:16 | 38.69151 | -91.75489 | 24381 ft | 507 kts | 92° |
| 2026-05-06 12:17 | 38.69220 | -91.70993 | 23980 ft | 502 kts | 92° |
| 2026-05-06 12:17 | 38.69254 | -91.66547 | 23593 ft | 498 kts | 93° |
| 2026-05-06 12:17 | 38.69282 | -91.62137 | 23131 ft | 493 kts | 93° |
| 2026-05-06 12:17 | 38.69309 | -91.57767 | 22674 ft | 489 kts | 93° |
| 2026-05-06 12:18 | 38.69337 | -91.53427 | 22224 ft | 486 kts | 93° |
| 2026-05-06 12:18 | 38.69360 | -91.49125 | 21783 ft | 483 kts | 93° |
| 2026-05-06 12:18 | 38.69383 | -91.44840 | 21342 ft | 480 kts | 93° |
| 2026-05-06 12:18 | 38.69400 | -91.40582 | 20916 ft | 477 kts | 93° |
| 2026-05-06 12:19 | 38.69417 | -91.36341 | 20494 ft | 475 kts | 93° |
| 2026-05-06 12:19 | 38.69433 | -91.32103 | 20078 ft | 472 kts | 92° |
| 2026-05-06 12:19 | 38.69445 | -91.27911 | 19667 ft | 469 kts | 93° |
| 2026-05-06 12:19 | 38.69430 | -91.23802 | 19270 ft | 466 kts | 94° |
| 2026-05-06 12:20 | 38.69393 | -91.19662 | 18872 ft | 463 kts | 93° |
| 2026-05-06 12:20 | 38.69387 | -91.15554 | 18480 ft | 460 kts | 92° |
| 2026-05-06 12:20 | 38.69390 | -91.11472 | 17981 ft | 456 kts | 92° |
| 2026-05-06 12:20 | 38.69389 | -91.07442 | 17314 ft | 448 kts | 92° |
| 2026-05-06 12:21 | 38.69383 | -91.03496 | 16669 ft | 440 kts | 92° |
| 2026-05-06 12:21 | 38.69387 | -90.99603 | 16035 ft | 434 kts | 91° |
| 2026-05-06 12:21 | 38.69442 | -90.95771 | 15413 ft | 428 kts | 89° |
| 2026-05-06 12:21 | 38.69605 | -90.92032 | 14814 ft | 421 kts | 87° |
| 2026-05-06 12:22 | 38.69794 | -90.88336 | 14215 ft | 410 kts | 87° |
| 2026-05-06 12:22 | 38.69968 | -90.84733 | 13592 ft | 400 kts | 88° |
| 2026-05-06 12:22 | 38.70133 | -90.81209 | 12818 ft | 393 kts | 87° |
| 2026-05-06 12:22 | 38.70301 | -90.77735 | 12047 ft | 388 kts | 86° |
| 2026-05-06 12:23 | 38.70501 | -90.74324 | 11300 ft | 381 kts | 86° |
| 2026-05-06 12:23 | 38.70656 | -90.70964 | 10571 ft | 375 kts | 87° |
| 2026-05-06 12:23 | 38.70791 | -90.67663 | 9851 ft | 368 kts | 87° |
| 2026-05-06 12:23 | 38.70920 | -90.64422 | 9054 ft | 361 kts | 87° |
| 2026-05-06 12:24 | 38.71047 | -90.61248 | 8280 ft | 353 kts | 86° |
| 2026-05-06 12:24 | 38.71183 | -90.58149 | 7521 ft | 344 kts | 86° |
| 2026-05-06 12:24 | 38.71314 | -90.55134 | 7015 ft | 329 kts | 85° |
| 2026-05-06 12:24 | 38.71446 | -90.52342 | 6960 ft | 300 kts | 87° |
| 2026-05-06 12:25 | 38.71263 | -90.49795 | 6814 ft | 273 kts | 102° |
| 2026-05-06 12:25 | 38.70646 | -90.47633 | 6938 ft | 245 kts | 116° |
| 2026-05-06 12:25 | 38.69952 | -90.45780 | 6979 ft | 226 kts | 115° |
| 2026-05-06 12:25 | 38.69285 | -90.43946 | 6713 ft | 228 kts | 115° |
| 2026-05-06 12:26 | 38.68612 | -90.42103 | 6406 ft | 228 kts | 115° |
| 2026-05-06 12:26 | 38.67947 | -90.40275 | 6079 ft | 225 kts | 115° |
| 2026-05-06 12:26 | 38.67289 | -90.38475 | 5717 ft | 223 kts | 116° |
| 2026-05-06 12:26 | 38.66607 | -90.36679 | 5290 ft | 225 kts | 116° |
| 2026-05-06 12:27 | 38.65925 | -90.34885 | 4870 ft | 226 kts | 116° |
| 2026-05-06 12:27 | 38.65228 | -90.33055 | 4448 ft | 227 kts | 116° |
| 2026-05-06 12:27 | 38.64535 | -90.31234 | 4029 ft | 228 kts | 116° |
| 2026-05-06 12:27 | 38.63914 | -90.29370 | 3586 ft | 229 kts | 105° |
| 2026-05-06 12:28 | 38.63924 | -90.27357 | 3024 ft | 230 kts | 70° |
| 2026-05-06 12:28 | 38.64842 | -90.25775 | 2553 ft | 225 kts | 32° |
| 2026-05-06 12:28 | 38.66278 | -90.25266 | 2170 ft | 208 kts | 353° |
| 2026-05-06 12:28 | 38.67587 | -90.25820 | 1971 ft | 186 kts | 330° |
| 2026-05-06 12:29 | 38.68448 | -90.26938 | 2361 ft | 179 kts | 306° |
| 2026-05-06 12:29 | 38.69290 | -90.28291 | 2516 ft | 207 kts | 308° |
| 2026-05-06 12:29 | 38.70134 | -90.29713 | 2235 ft | 193 kts | 305° |
| 2026-05-06 12:29 | 38.70879 | -90.31092 | 1845 ft | 183 kts | 303° |
| 2026-05-06 12:30 | 38.71564 | -90.32400 | 1523 ft | 174 kts | 303° |
| 2026-05-06 12:30 | 38.72226 | -90.33647 | 1356 ft | 159 kts | 305° |
| 2026-05-06 12:30 | 38.72855 | -90.34785 | 1245 ft | 156 kts | 303° |
| 2026-05-06 12:30 | 38.73465 | -90.35996 | 1003 ft | 164 kts | 303° |
| 2026-05-06 12:31 | 38.74103 | -90.37220 | 768 ft | 174 kts | 301° |
| 2026-05-06 12:31 | 38.74750 | -90.38488 | 590 ft | 164 kts | 301° |
| 2026-05-06 12:31 | 38.75342 | -90.39660 | 592 ft | 145 kts | 302° |
| 2026-05-06 12:31 | 38.75703 | -90.40380 | 613 ft | 23 kts | 309° |
| 2026-05-06 12:32 | 38.75813 | -90.40509 | 622 ft | 17 kts | 329° |
| 2026-05-06 12:32 | 38.75866 | -90.40546 | 622 ft | 8 kts | 333° |
| 2026-05-06 12:32 | 38.75924 | -90.40569 | 620 ft | 10 kts | 1° |
| 2026-05-06 12:32 | 38.75969 | -90.40506 | 620 ft | 12 kts | 91° |
| 2026-05-06 12:33 | 38.75925 | -90.40398 | 616 ft | 16 kts | 122° |
| 2026-05-06 12:33 | 38.75861 | -90.40265 | 611 ft | 19 kts | 122° |
| 2026-05-06 12:33 | 38.75787 | -90.40115 | 610 ft | 20 kts | 123° |
| 2026-05-06 12:33 | 38.75705 | -90.39953 | 602 ft | 23 kts | 123° |
| 2026-05-06 12:34 | 38.75619 | -90.39781 | 600 ft | 24 kts | 122° |
| 2026-05-06 12:34 | 38.75540 | -90.39620 | 596 ft | 19 kts | 121° |
| 2026-05-06 12:34 | 38.75468 | -90.39471 | 591 ft | 15 kts | 122° |
| 2026-05-06 12:34 | 38.75402 | -90.39337 | 586 ft | 18 kts | 122° |
| 2026-05-06 12:35 | 38.75332 | -90.39194 | 583 ft | 20 kts | 122° |
| 2026-05-06 12:35 | 38.75250 | -90.39031 | 580 ft | 23 kts | 122° |
| 2026-05-06 12:35 | 38.75170 | -90.38869 | 579 ft | 20 kts | 123° |
| 2026-05-06 12:35 | 38.75093 | -90.38713 | 577 ft | 22 kts | 122° |
| 2026-05-06 12:36 | 38.75018 | -90.38563 | 574 ft | 21 kts | 123° |
| 2026-05-06 12:36 | 38.74944 | -90.38413 | 571 ft | 14 kts | 122° |
| 2026-05-06 12:36 | 38.74889 | -90.38302 | 573 ft | 16 kts | 123° |
| 2026-05-06 12:36 | 38.74830 | -90.38179 | 569 ft | 16 kts | 121° |
| 2026-05-06 12:37 | 38.74779 | -90.38052 | 558 ft | 14 kts | 113° |
| 2026-05-06 12:37 | 38.74741 | -90.37943 | 558 ft | 13 kts | 114° |
| 2026-05-06 12:37 | 38.74705 | -90.37839 | 564 ft | 13 kts | 114° |
| 2026-05-06 12:37 | 38.74705 | -90.37734 | 566 ft | 12 kts | 63° |
| 2026-05-06 12:38 | 38.74744 | -90.37635 | 563 ft | 13 kts | 62° |
| 2026-05-06 12:38 | 38.74788 | -90.37529 | 558 ft | 14 kts | 63° |
| 2026-05-06 12:38 | 38.74830 | -90.37424 | 561 ft | 13 kts | 63° |
| 2026-05-06 12:38 | 38.74851 | -90.37314 | 555 ft | 13 kts | 87° |
| 2026-05-06 12:39 | 38.74819 | -90.37212 | 558 ft | 12 kts | 116° |
| 2026-05-06 12:39 | 38.74780 | -90.37115 | 558 ft | 12 kts | 120° |
| 2026-05-06 12:39 | 38.74738 | -90.37023 | 561 ft | 12 kts | 121° |
| 2026-05-06 12:39 | 38.74668 | -90.36985 | 559 ft | 12 kts | 159° |
| 2026-05-06 12:40 | 38.74627 | -90.36943 | 554 ft | 11 kts | 149° |
| 2026-05-06 12:40 | 38.74556 | -90.36904 | 563 ft | 4 kts | 155° |
| 2026-05-06 12:40 | 38.74550 | -90.36901 | 561 ft | 0 kts | 155° |